Time;durP1;ratioP1;P1;durP2;ratioP2;P2;SDS_P1;SDS_P2;PMS_P1;PMS_P2;Temp;Humidity;BMP_temperature;BMP_pressure;BME280_temperature;BME280_humidity;BME280_pressure;Samples;Min_cycle;Max_cycle;Signal;HPM_P1;HPM_P2
2021/08/22 00:00:56;;;;;;;2.17;1.47;;;;;;;18.50;84.61;101285.88;5074181;28;20449;-73
2021/08/22 00:03:23;;;;;;;1.80;1.30;;;;;;;18.50;84.16;101277.66;5074095;28;20461;-73
2021/08/22 00:05:49;;;;;;;2.83;1.47;;;;;;;18.52;84.28;101280.06;5073833;28;21027;-73
2021/08/22 00:08:16;;;;;;;1.50;1.33;;;;;;;18.49;83.96;101278.00;5080693;28;20445;-73
2021/08/22 00:10:42;;;;;;;2.60;1.60;;;;;;;18.47;84.94;101283.03;5073953;28;20495;-73
2021/08/22 00:13:08;;;;;;;1.57;1.20;;;;;;;18.45;85.19;101274.31;5073864;28;20448;-73
2021/08/22 00:15:35;;;;;;;2.27;1.40;;;;;;;18.38;85.53;101274.88;5073762;28;20849;-74
2021/08/22 00:18:03;;;;;;;4.10;1.70;;;;;;;18.34;85.57;101273.94;5073720;28;20453;-74
2021/08/22 00:20:29;;;;;;;3.97;1.50;;;;;;;18.34;85.74;101279.44;5073871;28;20452;-74
2021/08/22 00:22:56;;;;;;;2.37;1.60;;;;;;;18.33;84.86;101277.84;5073443;28;20462;-73
2021/08/22 00:25:22;;;;;;;2.80;1.60;;;;;;;18.28;85.43;101278.84;5073651;28;20461;-73
2021/08/22 00:27:49;;;;;;;4.30;2.10;;;;;;;18.28;85.43;101286.25;5073711;28;20441;-73
2021/08/22 00:30:15;;;;;;;3.33;1.70;;;;;;;18.28;84.92;101283.50;5073660;28;20441;-73
2021/08/22 00:32:42;;;;;;;3.13;1.47;;;;;;;18.27;85.54;101279.97;5073605;28;20440;-73
2021/08/22 00:35:11;;;;;;;1.50;1.10;;;;;;;18.28;86.06;101281.59;5073041;28;21001;-73
2021/08/22 00:37:38;;;;;;;4.33;1.50;;;;;;;18.24;85.63;101275.16;5073433;28;20446;-73
2021/08/22 00:40:05;;;;;;;2.90;2.10;;;;;;;18.29;85.27;101277.72;5073523;28;20445;-73
2021/08/22 00:42:33;;;;;;;4.07;2.10;;;;;;;18.27;85.65;101269.00;5073487;28;20453;-73
2021/08/22 00:45:00;;;;;;;2.93;1.73;;;;;;;18.30;85.73;101268.34;5073023;28;20981;-73
2021/08/22 00:47:27;;;;;;;3.37;2.20;;;;;;;18.35;85.06;101270.06;5073415;28;20467;-73
2021/08/22 00:49:54;;;;;;;3.60;2.07;;;;;;;18.33;85.61;101264.94;5073421;28;20441;-73
2021/08/22 00:52:22;;;;;;;1.63;1.53;;;;;;;18.31;83.29;101260.91;5073373;28;20467;-73
2021/08/22 00:54:49;;;;;;;2.50;1.70;;;;;;;18.32;83.03;101260.56;5073140;28;20504;-73
2021/08/22 00:57:15;;;;;;;2.00;1.73;;;;;;;18.31;82.77;101260.91;5073073;28;20445;-73
2021/08/22 00:59:42;;;;;;;4.60;1.43;;;;;;;18.28;82.38;101256.06;5073032;28;20445;-73
2021/08/22 01:02:19;;;;;;;4.03;2.03;;;;;;;18.27;83.47;101252.53;5073233;28;20448;-73
2021/08/22 01:04:55;;;;;;;4.13;1.80;;;;;;;18.30;83.94;101251.88;5073150;28;20452;-73
2021/08/22 01:07:28;;;;;;;2.07;1.43;;;;;;;18.34;84.27;101241.84;5073268;28;20429;-74
2021/08/22 01:09:55;;;;;;;4.13;1.97;;;;;;;18.39;84.59;101249.06;5073235;28;20433;-71
2021/08/22 01:12:26;;;;;;;1.60;1.20;;;;;;;18.36;84.03;101250.50;5073150;28;20452;-72
2021/08/22 01:14:57;;;;;;;2.67;1.50;;;;;;;18.37;83.85;101241.16;5072978;28;20851;-72
2021/08/22 01:17:27;;;;;;;2.17;1.50;;;;;;;18.40;82.89;101247.91;5073064;28;20437;-72
2021/08/22 01:19:58;;;;;;;2.47;1.57;;;;;;;18.44;83.72;101248.84;5073108;28;20421;-72
2021/08/22 01:22:28;;;;;;;1.83;1.60;;;;;;;18.44;83.53;101242.56;5073062;28;20422;-72
2021/08/22 01:24:57;;;;;;;3.63;1.83;;;;;;;18.45;83.16;101244.94;5072953;28;20460;-72
2021/08/22 01:27:25;;;;;;;2.07;1.53;;;;;;;18.45;83.47;101238.66;5072983;28;20446;-72
2021/08/22 01:29:59;;;;;;;1.77;1.60;;;;;;;18.44;82.56;101234.31;5073006;28;20860;-73
2021/08/22 01:32:35;;;;;;;1.73;1.50;;;;;;;18.43;83.46;101235.47;5072966;28;20430;-72
2021/08/22 01:35:02;;;;;;;2.30;1.70;;;;;;;18.42;83.31;101226.44;5072895;28;20488;-72
2021/08/22 01:37:29;;;;;;;1.90;1.33;;;;;;;18.36;83.04;101225.81;5072561;28;20437;-72
2021/08/22 01:39:56;;;;;;;1.27;1.10;;;;;;;18.39;82.77;101218.88;5072512;28;20829;-73
2021/08/22 01:42:22;;;;;;;2.50;1.80;;;;;;;18.31;83.66;101212.31;5072884;28;20441;-72
2021/08/22 01:44:49;;;;;;;1.50;1.27;;;;;;;18.32;83.18;101204.91;5072366;28;21056;-73
2021/08/22 01:47:16;;;;;;;3.13;1.60;;;;;;;18.28;83.92;101218.50;5073361;28;20441;-73
2021/08/22 01:49:45;;;;;;;3.33;1.73;;;;;;;18.22;83.07;101210.81;5076704;28;20482;-73
2021/08/22 01:52:12;;;;;;;2.20;1.10;;;;;;;18.24;83.06;101203.88;5076672;28;20437;-72
2021/08/22 01:54:42;;;;;;;2.50;1.70;;;;;;;18.19;83.68;101209.53;5076470;28;20468;-72
2021/08/22 01:57:08;;;;;;;2.03;1.50;;;;;;;18.15;83.51;101208.63;5076596;28;20448;-73
2021/08/22 01:59:36;;;;;;;2.17;1.50;;;;;;;18.20;83.84;101193.91;5076197;28;21049;-72
2021/08/22 02:02:03;;;;;;;3.00;1.57;;;;;;;18.19;84.41;101189.53;5076538;28;20448;-72
2021/08/22 02:04:36;;;;;;;2.40;1.50;;;;;;;18.17;83.91;101192.63;5076375;28;20461;-72
2021/08/22 02:07:10;;;;;;;2.70;1.63;;;;;;;18.12;83.50;101187.38;5076465;28;20447;-72
2021/08/22 02:09:43;;;;;;;2.40;1.50;;;;;;;18.09;84.19;101193.50;5076339;28;20504;-72
2021/08/22 02:12:14;;;;;;;2.77;1.90;;;;;;;18.03;84.51;101192.13;5076317;28;20429;-72
2021/08/22 02:14:45;;;;;;;2.40;1.70;;;;;;;18.05;84.40;101189.84;5075734;28;20507;-72
2021/08/22 02:17:12;;;;;;;4.60;1.37;;;;;;;18.10;84.56;101182.19;5076195;28;20445;-72
2021/08/22 02:19:40;;;;;;;2.13;1.60;;;;;;;18.13;84.96;101176.06;5076060;28;20448;-72
2021/08/22 02:22:08;;;;;;;1.77;1.27;;;;;;;18.09;85.02;101179.81;5082785;28;20413;-73
2021/08/22 02:24:35;;;;;;;2.10;1.90;;;;;;;18.10;84.45;101178.66;5075991;28;20457;-74
2021/08/22 02:27:02;;;;;;;3.87;1.87;;;;;;;18.09;83.99;101171.56;5076040;28;20442;-74
2021/08/22 02:29:28;;;;;;;1.90;1.70;;;;;;;18.03;82.96;101176.47;5075944;28;20444;-74
2021/08/22 02:31:55;;;;;;;2.17;1.30;;;;;;;18.02;82.63;101163.91;5075924;28;20437;-74
2021/08/22 02:34:21;;;;;;;2.33;1.77;;;;;;;17.98;82.26;101164.94;5075806;28;20469;-74
2021/08/22 02:36:48;;;;;;;2.00;1.50;;;;;;;17.91;83.63;101168.19;5075719;28;20485;-74
2021/08/22 02:39:15;;;;;;;1.93;1.37;;;;;;;17.92;84.35;101169.00;5075842;28;20445;-74
2021/08/22 02:41:42;;;;;;;2.80;1.40;;;;;;;17.87;85.00;101162.59;5075734;28;20442;-74
2021/08/22 02:44:08;;;;;;;3.67;1.80;;;;;;;17.89;85.60;101159.53;5075231;28;20993;-74
2021/08/22 02:46:35;;;;;;;2.73;1.30;;;;;;;17.93;85.41;101159.63;5075369;28;20984;-74
2021/08/22 02:49:01;;;;;;;4.73;1.40;;;;;;;17.95;85.22;101162.84;5075361;28;20957;-74
2021/08/22 02:51:28;;;;;;;2.10;1.30;;;;;;;17.90;85.43;101161.91;5075338;28;20969;-74
2021/08/22 02:53:54;;;;;;;2.63;1.80;;;;;;;17.92;84.56;101156.09;5075390;28;20461;-73
2021/08/22 02:56:22;;;;;;;3.77;1.63;;;;;;;17.87;83.95;101159.84;5075395;28;20477;-74
2021/08/22 02:58:48;;;;;;;1.37;1.03;;;;;;;17.85;83.95;101164.88;5074310;28;20487;-74
2021/08/22 03:01:15;;;;;;;1.30;1.20;;;;;;;17.89;83.18;101162.25;5075272;28;20445;-74
2021/08/22 03:03:41;;;;;;;2.30;1.40;;;;;;;17.89;83.78;101165.00;5074951;28;20476;-73
2021/08/22 03:06:08;;;;;;;2.30;1.30;;;;;;;17.88;84.73;101155.97;5075319;28;20445;-73
2021/08/22 03:08:34;;;;;;;2.07;1.47;;;;;;;17.86;85.24;101163.72;5075226;28;20456;-73
2021/08/22 03:11:01;;;;;;;1.70;1.40;;;;;;;17.84;85.36;101157.78;5075207;28;20441;-73
2021/08/22 03:13:28;;;;;;;3.10;1.67;;;;;;;17.85;85.28;101162.13;5075097;28;20476;-72
2021/08/22 03:15:55;;;;;;;2.27;1.23;;;;;;;17.85;85.24;101164.88;5074986;28;20477;-72
2021/08/22 03:18:21;;;;;;;2.70;1.80;;;;;;;17.86;85.97;101169.19;5075076;28;20453;-72
2021/08/22 03:20:48;;;;;;;1.40;1.23;;;;;;;17.85;85.54;101162.13;5074714;28;20938;-72
2021/08/22 03:23:14;;;;;;;1.87;1.40;;;;;;;17.83;85.96;101167.13;5074867;28;20472;-72
2021/08/22 03:25:41;;;;;;;4.60;1.43;;;;;;;17.77;86.25;101163.00;5074911;28;20442;-72
2021/08/22 03:28:07;;;;;;;3.03;1.77;;;;;;;17.77;86.08;101167.69;5074567;28;20935;-72
2021/08/22 03:30:35;;;;;;;5.40;1.37;;;;;;;17.79;85.64;101176.34;5074761;28;20452;-72
2021/08/22 03:33:01;;;;;;;2.00;1.43;;;;;;;17.77;85.87;101176.69;5074793;28;20444;-72
2021/08/22 03:35:28;;;;;;;1.77;1.57;;;;;;;17.77;85.85;101175.91;5074608;28;20484;-72
2021/08/22 03:37:54;;;;;;;3.00;1.90;;;;;;;17.80;86.37;101180.72;5074641;28;20441;-72
2021/08/22 03:40:20;;;;;;;1.80;1.20;;;;;;;17.80;86.16;101178.78;5074634;28;20449;-72
2021/08/22 03:42:47;;;;;;;2.77;1.77;;;;;;;17.80;85.93;101169.75;5074551;28;20445;-72
2021/08/22 03:45:14;;;;;;;1.70;1.53;;;;;;;17.77;85.69;101167.69;5074188;28;20504;-71
2021/08/22 03:47:42;;;;;;;2.60;1.70;;;;;;;17.81;85.90;101168.63;5074493;28;20449;-71
2021/08/22 03:50:09;;;;;;;1.00;1.00;;;;;;;17.81;85.67;101163.13;5074100;28;20942;-72
2021/08/22 03:52:36;;;;;;;2.60;1.50;;;;;;;17.79;85.57;101160.72;5074069;28;20938;-71
2021/08/22 03:55:03;;;;;;;4.47;1.77;;;;;;;17.79;85.77;101165.41;5074155;28;20465;-72
2021/08/22 03:57:30;;;;;;;4.60;1.77;;;;;;;17.76;85.88;101160.59;5074450;28;20516;-71
2021/08/22 03:59:57;;;;;;;1.50;1.40;;;;;;;17.72;86.05;101152.22;5074220;28;20821;-72
2021/08/22 04:02:23;;;;;;;3.10;1.87;;;;;;;17.71;85.98;101152.53;5074170;28;20442;-71
2021/08/22 04:04:51;;;;;;;2.80;1.63;;;;;;;17.64;86.28;101156.63;5073743;28;20986;-70
2021/08/22 04:07:17;;;;;;;2.80;1.50;;;;;;;17.61;86.14;101153.75;5073825;28;20434;-71
2021/08/22 04:09:44;;;;;;;3.10;1.60;;;;;;;17.65;86.24;101149.19;5073949;28;20444;-71
2021/08/22 04:12:10;;;;;;;2.00;1.47;;;;;;;17.62;86.59;101147.94;5073445;28;20817;-70
2021/08/22 04:14:38;;;;;;;2.30;1.53;;;;;;;17.59;84.50;101143.13;5073841;28;20473;-70
2021/08/22 04:17:05;;;;;;;2.27;1.30;;;;;;;17.56;83.63;101138.31;5073503;28;21012;-70
2021/08/22 04:19:31;;;;;;;2.07;1.40;;;;;;;17.51;84.26;101144.00;5080566;28;20433;-72
2021/08/22 04:21:59;;;;;;;1.87;1.20;;;;;;;17.46;84.30;101146.13;5073840;28;20448;-71
2021/08/22 04:24:26;;;;;;;1.67;1.23;;;;;;;17.45;85.32;101145.34;5073374;28;20976;-74
2021/08/22 04:26:52;;;;;;;1.83;1.33;;;;;;;17.46;86.33;101146.13;5073712;28;20444;-74
2021/08/22 04:29:19;;;;;;;1.97;1.53;;;;;;;17.47;86.65;101137.59;5073684;28;20437;-74
2021/08/22 04:31:46;;;;;;;8.33;1.60;;;;;;;17.47;86.88;101142.25;5073615;28;20544;-74
2021/08/22 04:34:12;;;;;;;1.23;1.13;;;;;;;17.48;87.04;101144.66;5073549;28;20465;-74
2021/08/22 04:36:38;;;;;;;2.40;1.80;;;;;;;17.48;86.40;101130.16;5073140;28;20481;-74
2021/08/22 04:39:06;;;;;;;1.93;1.57;;;;;;;17.46;86.72;101124.22;5073270;28;20935;-74
2021/08/22 04:41:32;;;;;;;2.87;1.90;;;;;;;17.46;86.64;101127.78;5073168;28;20445;-74
2021/08/22 04:43:59;;;;;;;2.97;1.50;;;;;;;17.48;86.73;101125.47;5073257;28;20485;-74
2021/08/22 04:46:25;;;;;;;2.63;1.60;;;;;;;17.51;86.58;101122.09;5073470;28;20430;-75
2021/08/22 04:48:52;;;;;;;1.87;1.50;;;;;;;17.51;86.57;101124.03;5073422;28;20812;-74
2021/08/22 04:51:18;;;;;;;4.13;1.40;;;;;;;17.48;86.64;101121.94;5073383;28;20441;-74
2021/08/22 04:53:45;;;;;;;1.40;1.30;;;;;;;17.47;86.47;101120.34;5072937;28;20990;-74
2021/08/22 04:56:12;;;;;;;1.40;0.90;;;;;;;17.47;86.40;101120.34;5074570;28;20504;-74
2021/08/22 04:58:39;;;;;;;1.67;1.30;;;;;;;17.46;86.34;101107.78;5072946;28;20939;-74
2021/08/22 05:01:06;;;;;;;2.63;1.43;;;;;;;17.46;86.60;101108.59;5073284;28;20445;-74
2021/08/22 05:03:32;;;;;;;2.13;1.43;;;;;;;17.49;86.11;101123.56;5072877;28;20881;-74
2021/08/22 05:05:59;;;;;;;2.13;1.30;;;;;;;17.53;86.02;101127.22;5073220;28;20798;-74
2021/08/22 05:08:26;;;;;;;2.20;1.23;;;;;;;17.55;85.14;101123.03;5073200;28;20453;-74
2021/08/22 05:10:54;;;;;;;2.63;1.90;;;;;;;17.57;85.28;101119.94;5073189;28;20437;-74
2021/08/22 05:13:22;;;;;;;1.47;1.10;;;;;;;17.56;85.88;101121.06;5073229;28;20569;-73
2021/08/22 05:15:50;;;;;;;2.33;1.17;;;;;;;17.64;85.01;101125.69;5073074;28;20493;-74
2021/08/22 05:18:17;;;;;;;2.00;1.47;;;;;;;17.63;84.42;101113.13;5072977;28;20963;-73
2021/08/22 05:20:43;;;;;;;1.73;1.37;;;;;;;17.71;84.06;101120.47;5073175;28;20437;-74
2021/08/22 05:23:10;;;;;;;1.20;1.10;;;;;;;17.78;83.94;101131.72;5075676;28;20448;-73
2021/08/22 05:25:36;;;;;;;3.23;1.30;;;;;;;17.83;84.19;101127.97;5076880;28;20441;-73
2021/08/22 05:28:03;;;;;;;2.10;1.37;;;;;;;17.80;84.07;101115.75;5077138;28;20441;-73
2021/08/22 05:30:31;;;;;;;2.87;1.97;;;;;;;17.87;83.53;101123.41;5077359;28;20441;-73
2021/08/22 05:32:57;;;;;;;2.03;1.60;;;;;;;17.97;82.43;101122.19;5076993;28;20818;-73
2021/08/22 05:35:24;;;;;;;2.20;1.43;;;;;;;17.98;80.70;101121.88;5076924;28;20461;-73
2021/08/22 05:37:50;;;;;;;5.90;1.70;;;;;;;18.00;81.04;101125.06;5076707;28;20482;-73
2021/08/22 05:40:17;;;;;;;8.87;1.17;;;;;;;18.02;81.28;101122.78;5076889;28;20461;-73
2021/08/22 05:42:43;;;;;;;1.50;1.23;;;;;;;18.04;81.76;101122.44;5076922;28;20441;-73
2021/08/22 05:45:11;;;;;;;2.90;1.53;;;;;;;17.99;82.37;101120.72;5076416;28;20473;-73
2021/08/22 05:47:39;;;;;;;1.50;1.20;;;;;;;18.03;81.91;101126.34;5076772;28;20444;-72
2021/08/22 05:50:07;;;;;;;1.70;1.03;;;;;;;18.11;81.71;101123.50;5076717;28;20452;-72
2021/08/22 05:52:34;;;;;;;1.20;1.03;;;;;;;18.14;81.20;101122.81;5076191;28;20449;-72
2021/08/22 05:55:03;;;;;;;4.50;1.80;;;;;;;18.21;80.79;101121.47;5076566;28;20893;-72
2021/08/22 05:57:30;;;;;;;1.30;1.13;;;;;;;18.23;80.96;101122.72;5076461;28;20481;-72
2021/08/22 05:59:56;;;;;;;1.23;1.13;;;;;;;18.35;79.81;101113.72;5076515;28;20445;-72
2021/08/22 06:02:23;;;;;;;2.37;1.10;;;;;;;18.46;79.52;101108.56;5076131;28;20856;-73
2021/08/22 06:04:50;;;;;;;2.53;1.20;;;;;;;18.49;79.92;101113.38;5076371;28;20467;-73
2021/08/22 06:07:19;;;;;;;2.30;1.43;;;;;;;18.52;79.74;101113.50;5076377;28;20452;-73
2021/08/22 06:09:45;;;;;;;2.10;1.50;;;;;;;18.56;79.39;101110.88;5076340;28;20477;-73
2021/08/22 06:12:12;;;;;;;3.20;1.67;;;;;;;18.64;78.86;101109.97;5076383;28;20448;-73
2021/08/22 06:14:38;;;;;;;2.03;1.53;;;;;;;18.70;79.04;101100.41;5081054;28;20433;-71
2021/08/22 06:17:05;;;;;;;2.40;1.10;;;;;;;18.76;79.02;101110.00;5078030;28;20485;-71
2021/08/22 06:19:31;;;;;;;3.67;1.60;;;;;;;18.81;77.86;101112.50;5076206;28;20437;-71
2021/08/22 06:21:59;;;;;;;2.07;1.70;;;;;;;18.84;77.30;101111.81;5076156;28;20445;-71
2021/08/22 06:24:26;;;;;;;1.73;1.47;;;;;;;18.88;77.08;101123.72;5075961;28;20468;-72
2021/08/22 06:26:52;;;;;;;2.60;1.50;;;;;;;18.88;76.68;101111.94;5076012;28;20441;-72
2021/08/22 06:29:18;;;;;;;1.90;1.60;;;;;;;18.88;77.02;101112.75;5075948;28;20452;-71
2021/08/22 06:31:45;;;;;;;2.27;2.07;;;;;;;18.89;76.57;101108.84;5075913;28;20467;-70
2021/08/22 06:34:12;;;;;;;2.30;1.40;;;;;;;18.92;76.04;101107.38;5075606;28;20504;-71
2021/08/22 06:36:39;;;;;;;2.10;1.33;;;;;;;18.94;77.15;101102.31;5075424;28;21019;-70
2021/08/22 06:39:07;;;;;;;1.50;1.30;;;;;;;19.00;76.93;101108.41;5075816;28;20437;-70
2021/08/22 06:41:33;;;;;;;1.50;1.23;;;;;;;19.04;76.15;101109.31;5075753;28;20438;-73
2021/08/22 06:44:00;;;;;;;2.23;1.50;;;;;;;19.11;75.36;101106.75;5075427;28;20496;-73
2021/08/22 06:46:26;;;;;;;2.03;1.30;;;;;;;19.20;74.54;101106.63;5075436;28;20936;-73
2021/08/22 06:48:53;;;;;;;5.70;1.20;;;;;;;19.34;74.23;101104.31;5075575;28;20449;-73
2021/08/22 06:51:19;;;;;;;1.47;1.20;;;;;;;19.46;74.06;101107.03;5075328;28;20939;-73
2021/08/22 06:53:46;;;;;;;1.53;1.17;;;;;;;19.59;72.02;101102.28;5075198;28;20871;-73
2021/08/22 06:56:14;;;;;;;1.53;1.43;;;;;;;19.75;71.83;101100.41;5075502;28;20445;-74
2021/08/22 06:58:40;;;;;;;1.90;1.30;;;;;;;19.94;73.94;101110.75;5075144;28;20961;-72
2021/08/22 07:01:07;;;;;;;1.10;1.00;;;;;;;20.03;72.36;101113.34;5075477;28;20441;-72
2021/08/22 07:03:34;;;;;;;2.40;1.33;;;;;;;20.04;71.37;101112.97;5075281;28;20464;-72
2021/08/22 07:06:00;;;;;;;3.10;1.47;;;;;;;20.09;70.50;101104.47;5075355;28;20460;-76
2021/08/22 07:08:26;;;;;;;3.07;1.47;;;;;;;20.11;69.32;101093.13;5075206;28;20444;-72
2021/08/22 07:10:53;;;;;;;1.87;1.20;;;;;;;20.13;70.08;101088.84;5075198;28;20596;-74
2021/08/22 07:13:21;;;;;;;1.40;1.27;;;;;;;20.17;71.39;101088.94;5074811;28;20449;-74
2021/08/22 07:15:47;;;;;;;1.30;1.20;;;;;;;20.22;70.32;101091.44;5075119;28;20491;-74
2021/08/22 07:18:14;;;;;;;3.50;1.30;;;;;;;20.29;70.07;101093.59;5075022;28;20481;-74
2021/08/22 07:20:40;;;;;;;1.87;1.37;;;;;;;20.36;69.56;101083.56;5075004;28;20438;-73
2021/08/22 07:23:06;;;;;;;2.87;1.40;;;;;;;20.42;69.15;101076.63;5075000;28;20441;-73
2021/08/22 07:25:33;;;;;;;2.80;1.50;;;;;;;20.52;69.00;101071.78;5075008;28;20483;-72
2021/08/22 07:27:59;;;;;;;1.70;1.30;;;;;;;20.58;69.40;101073.88;5074891;28;20433;-71
2021/08/22 07:30:27;;;;;;;3.90;1.80;;;;;;;20.75;69.68;101072.72;5074844;28;20445;-73
2021/08/22 07:32:55;;;;;;;1.60;0.97;;;;;;;20.83;67.69;101066.22;5074493;28;20964;-71
2021/08/22 07:35:22;;;;;;;1.47;1.20;;;;;;;20.94;67.36;101060.97;5074732;28;20465;-72
2021/08/22 07:37:48;;;;;;;1.60;1.27;;;;;;;21.02;65.82;101067.41;5074592;28;20477;-71
2021/08/22 07:40:15;;;;;;;1.43;1.10;;;;;;;21.06;65.36;101071.81;5074657;28;20437;-71
2021/08/22 07:42:41;;;;;;;1.60;1.37;;;;;;;21.14;65.34;101064.53;5074629;28;20437;-72
2021/08/22 07:45:08;;;;;;;1.57;1.33;;;;;;;21.23;66.10;101065.09;5073453;28;20477;-72
2021/08/22 07:47:36;;;;;;;1.37;1.20;;;;;;;21.27;65.17;101068.75;5074478;28;20441;-72
2021/08/22 07:50:03;;;;;;;1.83;1.53;;;;;;;21.27;65.44;101071.50;5074461;28;20446;-71
2021/08/22 07:52:30;;;;;;;2.33;1.60;;;;;;;21.48;65.44;101075.91;5074094;28;20819;-72
2021/08/22 07:54:56;;;;;;;3.63;1.30;;;;;;;21.59;65.02;101079.66;5073999;28;20974;-72
2021/08/22 07:57:23;;;;;;;4.13;1.30;;;;;;;21.74;65.01;101083.50;5074248;28;20485;-71
2021/08/22 07:59:49;;;;;;;1.37;1.27;;;;;;;21.82;62.89;101083.25;5074273;28;20445;-72
2021/08/22 08:02:15;;;;;;;1.47;1.20;;;;;;;21.97;63.44;101084.31;5074224;28;20450;-71
2021/08/22 08:04:43;;;;;;;1.83;1.67;;;;;;;22.10;63.98;101082.97;5074070;28;20835;-73
2021/08/22 08:07:10;;;;;;;1.50;1.30;;;;;;;22.10;65.08;101082.19;5074113;28;20464;-71
2021/08/22 08:09:36;;;;;;;2.30;1.33;;;;;;;22.16;63.96;101076.00;5074072;28;20445;-73
2021/08/22 08:12:03;;;;;;;1.13;0.93;;;;;;;22.29;63.91;101081.34;5076908;28;20492;-74
2021/08/22 08:14:29;;;;;;;3.07;1.80;;;;;;;22.37;63.07;101075.59;5077511;28;20985;-73
2021/08/22 08:16:56;;;;;;;1.70;1.30;;;;;;;22.44;62.50;101080.41;5073565;28;20883;-72
2021/08/22 08:19:22;;;;;;;1.40;1.30;;;;;;;22.41;60.89;101087.47;5073860;28;20445;-72
2021/08/22 08:21:50;;;;;;;2.33;1.60;;;;;;;22.52;62.47;101076.59;5073779;28;20441;-72
2021/08/22 08:24:16;;;;;;;1.63;1.40;;;;;;;22.48;61.02;101080.47;5073704;28;20488;-72
2021/08/22 08:26:43;;;;;;;3.23;2.00;;;;;;;22.49;62.41;101085.66;5067192;28;20497;-73
2021/08/22 08:29:09;;;;;;;2.13;1.50;;;;;;;22.53;62.28;101077.41;5073625;28;20445;-72
2021/08/22 08:31:36;;;;;;;2.60;1.43;;;;;;;22.48;59.33;101078.50;5073621;28;20445;-73
2021/08/22 08:34:02;;;;;;;1.40;1.23;;;;;;;22.54;59.55;101081.78;5073216;28;20995;-72
2021/08/22 08:36:29;;;;;;;1.57;1.13;;;;;;;22.42;62.03;101085.53;5073537;28;20438;-72
2021/08/22 08:38:57;;;;;;;1.40;1.23;;;;;;;22.34;61.33;101075.53;5073443;28;20481;-73
2021/08/22 08:41:23;;;;;;;4.63;1.37;;;;;;;22.54;61.54;101079.00;5073525;28;20449;-72
2021/08/22 08:43:49;;;;;;;2.00;1.70;;;;;;;22.60;62.08;101077.50;5073212;28;20484;-72
2021/08/22 08:46:16;;;;;;;2.53;1.20;;;;;;;22.82;62.42;101079.44;5073475;28;20427;-72
2021/08/22 08:48:43;;;;;;;6.70;1.87;;;;;;;22.85;61.96;101081.47;5073398;28;20437;-72
2021/08/22 08:51:24;;;;;;;2.63;2.00;;;;;;;22.87;62.02;101087.41;5073324;28;20452;-71
2021/08/22 08:53:52;;;;;;;1.80;1.33;;;;;;;22.94;61.90;101088.72;5073006;28;20986;-73
2021/08/22 08:56:20;;;;;;;2.40;1.53;;;;;;;22.97;61.77;101085.97;5073286;28;20445;-70
2021/08/22 08:58:46;;;;;;;3.13;1.70;;;;;;;23.04;61.67;101079.78;5073148;28;20476;-72
2021/08/22 09:01:13;;;;;;;1.97;1.73;;;;;;;23.19;62.62;101077.97;5073218;28;20817;-69
2021/08/22 09:03:43;;;;;;;2.53;1.37;;;;;;;23.32;62.81;101074.59;5073160;28;20479;-70
2021/08/22 09:06:38;;;;;;;2.17;1.77;;;;;;;23.25;61.87;101070.97;5073729;28;20440;-72
2021/08/22 09:09:40;;;;;;;1.97;1.60;;;;;;;23.25;60.71;101070.97;5073305;28;20441;-73
2021/08/22 09:12:43;;;;;;;2.93;2.30;;;;;;;23.16;60.40;101079.53;5073280;28;20428;-72
2021/08/22 09:15:55;;;;;;;1.83;1.57;;;;;;;23.17;62.16;101064.56;5073145;28;20472;-72
2021/08/22 09:19:14;;;;;;;2.70;1.90;;;;;;;23.24;62.16;101072.94;5073087;28;20828;-72
2021/08/22 09:22:28;;;;;;;2.30;1.53;;;;;;;23.28;62.19;101068.22;5073113;28;20429;-72
2021/08/22 09:25:37;;;;;;;2.40;1.43;;;;;;;23.14;60.95;101074.38;5073057;28;20465;-72
2021/08/22 09:28:41;;;;;;;1.70;1.60;;;;;;;23.27;62.22;101061.13;5072721;28;20437;-72
2021/08/22 09:31:41;;;;;;;4.40;1.50;;;;;;;23.29;62.28;101067.09;5073053;28;20441;-72
2021/08/22 09:34:48;;;;;;;3.37;2.00;;;;;;;23.25;62.03;101062.69;5072885;28;20834;-72
2021/08/22 09:37:50;;;;;;;3.40;2.37;;;;;;;23.12;62.08;101059.34;5072969;28;20461;-72
2021/08/22 09:40:54;;;;;;;3.03;2.10;;;;;;;23.14;63.32;101060.56;5073027;28;20438;-72
2021/08/22 09:43:58;;;;;;;3.17;1.90;;;;;;;23.19;63.17;101066.94;5072799;28;20452;-73
2021/08/22 09:47:04;;;;;;;3.47;1.90;;;;;;;23.13;62.51;101074.75;5072877;28;20429;-72
2021/08/22 09:50:08;;;;;;;3.20;2.00;;;;;;;23.13;62.80;101072.00;5072803;28;20456;-74
2021/08/22 09:53:07;;;;;;;2.30;1.53;;;;;;;23.14;62.86;101082.66;5072277;28;20859;-74
2021/08/22 09:56:19;;;;;;;1.93;1.67;;;;;;;23.20;63.75;101083.16;5073103;28;20429;-73
2021/08/22 09:59:36;;;;;;;2.13;1.80;;;;;;;23.09;63.58;101093.25;5072099;28;20481;-73
2021/08/22 10:02:39;;;;;;;2.57;1.90;;;;;;;22.90;64.11;101100.50;5041548;28;21064;-73
2021/08/22 10:05:39;;;;;;;2.87;2.67;;;;;;;22.73;63.65;101106.53;5050598;28;21028;-73
2021/08/22 10:08:12;;;;;;;2.27;1.90;;;;;;;22.70;65.21;101109.22;5051688;28;20969;-73
2021/08/22 10:10:42;;;;;;;3.00;2.07;;;;;;;22.61;65.87;101110.28;5076381;28;20425;-72
2021/08/22 10:13:08;;;;;;;1.80;1.70;;;;;;;22.57;66.58;101100.34;5083017;28;20942;-73
2021/08/22 10:15:35;;;;;;;2.30;1.23;;;;;;;22.60;67.50;101097.63;5076004;28;20816;-73
2021/08/22 10:18:01;;;;;;;3.57;1.93;;;;;;;22.65;67.62;101104.81;5076213;28;20530;-72
2021/08/22 10:20:47;;;;;;;2.73;1.90;;;;;;;22.70;68.04;101098.97;5076122;28;20445;-74
2021/08/22 10:23:54;;;;;;;1.97;1.70;;;;;;;22.75;65.26;101086.81;5076224;28;20429;-73
2021/08/22 10:26:46;;;;;;;2.37;1.90;;;;;;;22.85;64.88;101084.22;5076057;28;20429;-73
2021/08/22 10:29:15;;;;;;;4.73;1.73;;;;;;;22.90;64.31;101081.16;5076024;28;20490;-72
2021/08/22 10:32:05;;;;;;;1.93;1.60;;;;;;;23.02;64.46;101096.72;5075956;28;20441;-75
2021/08/22 10:34:31;;;;;;;3.87;2.27;;;;;;;23.12;66.43;101087.78;5075855;28;20464;-72
2021/08/22 10:36:58;;;;;;;3.40;1.83;;;;;;;23.24;65.90;101078.47;5075800;28;20848;-72
2021/08/22 10:39:32;;;;;;;2.50;1.60;;;;;;;23.30;65.14;101087.22;5075752;28;20485;-72
2021/08/22 10:41:59;;;;;;;2.03;1.40;;;;;;;23.34;65.83;101085.31;5075389;28;20541;-71
2021/08/22 10:44:39;;;;;;;2.10;1.50;;;;;;;23.39;66.83;101084.97;5074591;28;20487;-72
2021/08/22 10:47:07;;;;;;;1.77;1.60;;;;;;;23.45;66.94;101080.69;5075055;28;20532;-71
2021/08/22 10:49:58;;;;;;;2.33;1.47;;;;;;;23.50;67.47;101085.88;5074755;28;20487;-72
2021/08/22 10:52:25;;;;;;;2.43;1.77;;;;;;;23.51;66.70;101081.97;5074470;28;20822;-71
2021/08/22 10:55:32;;;;;;;2.03;1.63;;;;;;;23.52;65.87;101089.09;5076155;28;20465;-71
2021/08/22 10:57:59;;;;;;;2.07;1.87;;;;;;;23.53;66.46;101076.03;5074434;28;21016;-71
2021/08/22 11:00:26;;;;;;;3.00;1.87;;;;;;;23.53;67.98;101081.56;5074865;28;20441;-71
2021/08/22 11:02:53;;;;;;;2.40;1.60;;;;;;;23.42;69.78;101084.22;5074788;28;20447;-72
2021/08/22 11:05:21;;;;;;;1.83;1.60;;;;;;;23.29;70.50;101091.97;5074629;28;20465;-72
2021/08/22 11:07:51;;;;;;;5.73;1.60;;;;;;;23.11;70.48;101091.72;5074657;28;20803;-72
2021/08/22 11:10:19;;;;;;;2.27;1.87;;;;;;;22.85;70.78;101095.28;5075032;28;20526;-72
2021/08/22 11:12:49;;;;;;;1.60;1.50;;;;;;;22.72;71.85;101093.09;5074661;28;20441;-74
2021/08/22 11:15:24;;;;;;;2.80;2.27;;;;;;;22.58;71.04;101088.94;5074577;28;20472;-73
2021/08/22 11:17:50;;;;;;;1.83;1.53;;;;;;;22.49;71.69;101098.63;5074350;28;20488;-73
2021/08/22 11:20:18;;;;;;;3.60;1.93;;;;;;;22.40;72.87;101093.34;5072992;28;20910;-73
2021/08/22 11:22:45;;;;;;;2.60;1.70;;;;;;;22.25;76.09;101099.81;5074317;28;20553;-72
2021/08/22 11:25:12;;;;;;;2.30;2.07;;;;;;;22.05;78.47;101088.81;5074301;28;20545;-74
2021/08/22 11:27:40;;;;;;;4.03;2.40;;;;;;;21.88;79.64;101089.28;5074200;28;20479;-73
2021/08/22 11:30:10;;;;;;;3.10;2.37;;;;;;;21.75;80.82;101085.88;5074361;28;20474;-73
2021/08/22 11:32:38;;;;;;;3.90;2.30;;;;;;;21.68;83.17;101088.50;5074162;28;20441;-73
2021/08/22 11:35:13;;;;;;;3.07;2.30;;;;;;;21.55;84.46;101090.59;5073834;28;20449;-73
2021/08/22 11:37:39;;;;;;;3.13;2.47;;;;;;;21.48;84.32;101097.94;5073674;28;20906;-73
2021/08/22 11:40:07;;;;;;;8.17;3.13;;;;;;;21.41;84.49;101087.56;5074007;28;20622;-72